sensor_id;sensor_type;location;lat;lon;timestamp;temperature;humidity
77056;SHT30;67471;44.918;8.614;2023-12-14T00:00:28;9.45;84.11
77056;SHT30;67471;44.918;8.614;2023-12-14T00:03:33;9.48;83.90
77056;SHT30;67471;44.918;8.614;2023-12-14T00:06:37;9.56;84.04
77056;SHT30;67471;44.918;8.614;2023-12-14T00:09:41;9.62;83.99
77056;SHT30;67471;44.918;8.614;2023-12-14T00:12:45;9.53;84.31
77056;SHT30;67471;44.918;8.614;2023-12-14T00:15:48;9.61;84.08
77056;SHT30;67471;44.918;8.614;2023-12-14T00:18:53;9.59;84.10
77056;SHT30;67471;44.918;8.614;2023-12-14T00:21:57;9.68;83.49
77056;SHT30;67471;44.918;8.614;2023-12-14T00:25:01;9.75;83.38
77056;SHT30;67471;44.918;8.614;2023-12-14T00:28:05;9.63;83.61
77056;SHT30;67471;44.918;8.614;2023-12-14T00:31:09;9.66;83.63
77056;SHT30;67471;44.918;8.614;2023-12-14T00:34:12;9.68;83.72
77056;SHT30;67471;44.918;8.614;2023-12-14T00:37:16;9.69;83.24
77056;SHT30;67471;44.918;8.614;2023-12-14T00:40:20;9.71;83.18
77056;SHT30;67471;44.918;8.614;2023-12-14T00:43:24;9.59;83.26
77056;SHT30;67471;44.918;8.614;2023-12-14T00:46:28;9.63;83.43
77056;SHT30;67471;44.918;8.614;2023-12-14T00:49:32;9.66;83.11
77056;SHT30;67471;44.918;8.614;2023-12-14T00:52:36;9.55;83.43
77056;SHT30;67471;44.918;8.614;2023-12-14T00:55:40;9.58;83.09
77056;SHT30;67471;44.918;8.614;2023-12-14T00:58:44;9.58;83.19
77056;SHT30;67471;44.918;8.614;2023-12-14T01:01:48;9.62;83.04
77056;SHT30;67471;44.918;8.614;2023-12-14T01:04:52;9.68;82.69
77056;SHT30;67471;44.918;8.614;2023-12-14T01:07:55;9.69;82.88
77056;SHT30;67471;44.918;8.614;2023-12-14T01:10:59;9.68;82.80
77056;SHT30;67471;44.918;8.614;2023-12-14T01:14:03;9.61;82.77
77056;SHT30;67471;44.918;8.614;2023-12-14T01:17:07;9.63;82.73
77056;SHT30;67471;44.918;8.614;2023-12-14T01:20:11;9.66;82.70
77056;SHT30;67471;44.918;8.614;2023-12-14T01:23:15;9.65;82.91
77056;SHT30;67471;44.918;8.614;2023-12-14T01:26:19;9.69;82.82
77056;SHT30;67471;44.918;8.614;2023-12-14T01:29:22;9.63;82.87
77056;SHT30;67471;44.918;8.614;2023-12-14T01:32:26;9.72;82.64
77056;SHT30;67471;44.918;8.614;2023-12-14T01:35:30;9.66;82.97
77056;SHT30;67471;44.918;8.614;2023-12-14T01:38:34;9.69;82.67
77056;SHT30;67471;44.918;8.614;2023-12-14T01:41:37;9.63;82.43
77056;SHT30;67471;44.918;8.614;2023-12-14T01:44:41;9.58;82.50
77056;SHT30;67471;44.918;8.614;2023-12-14T01:47:45;9.53;82.65
77056;SHT30;67471;44.918;8.614;2023-12-14T01:50:49;9.55;82.55
77056;SHT30;67471;44.918;8.614;2023-12-14T01:53:53;9.31;83.57
77056;SHT30;67471;44.918;8.614;2023-12-14T01:56:56;9.36;83.39
77056;SHT30;67471;44.918;8.614;2023-12-14T02:00:00;9.45;83.31
77056;SHT30;67471;44.918;8.614;2023-12-14T02:03:04;9.38;83.47
77056;SHT30;67471;44.918;8.614;2023-12-14T02:06:08;9.41;83.47
77056;SHT30;67471;44.918;8.614;2023-12-14T02:09:12;9.38;83.41
77056;SHT30;67471;44.918;8.614;2023-12-14T02:12:16;9.38;83.29
77056;SHT30;67471;44.918;8.614;2023-12-14T02:15:20;9.45;83.12
77056;SHT30;67471;44.918;8.614;2023-12-14T02:18:24;9.45;82.94
77056;SHT30;67471;44.918;8.614;2023-12-14T02:21:28;9.35;83.25
77056;SHT30;67471;44.918;8.614;2023-12-14T02:24:32;9.42;83.26
77056;SHT30;67471;44.918;8.614;2023-12-14T02:27:36;9.38;82.92
77056;SHT30;67471;44.918;8.614;2023-12-14T02:30:40;9.35;83.18
77056;SHT30;67471;44.918;8.614;2023-12-14T02:33:43;9.22;83.64
77056;SHT30;67471;44.918;8.614;2023-12-14T02:36:47;9.27;83.53
77056;SHT30;67471;44.918;8.614;2023-12-14T02:39:51;9.12;84.16
77056;SHT30;67471;44.918;8.614;2023-12-14T02:42:55;9.24;83.60
77056;SHT30;67471;44.918;8.614;2023-12-14T02:45:58;9.14;83.77
77056;SHT30;67471;44.918;8.614;2023-12-14T02:49:06;9.12;83.88
77056;SHT30;67471;44.918;8.614;2023-12-14T02:52:09;9.18;83.82
77056;SHT30;67471;44.918;8.614;2023-12-14T02:55:13;9.07;84.02
77056;SHT30;67471;44.918;8.614;2023-12-14T02:58:18;9.11;83.99
77056;SHT30;67471;44.918;8.614;2023-12-14T03:01:22;9.04;83.91
77056;SHT30;67471;44.918;8.614;2023-12-14T03:04:26;9.04;83.78
77056;SHT30;67471;44.918;8.614;2023-12-14T03:07:30;8.91;84.33
77056;SHT30;67471;44.918;8.614;2023-12-14T03:10:34;8.96;84.22
77056;SHT30;67471;44.918;8.614;2023-12-14T03:13:37;8.97;84.18
77056;SHT30;67471;44.918;8.614;2023-12-14T03:16:41;9.04;83.93
77056;SHT30;67471;44.918;8.614;2023-12-14T03:19:45;8.97;84.23
77056;SHT30;67471;44.918;8.614;2023-12-14T03:22:49;8.99;84.12
77056;SHT30;67471;44.918;8.614;2023-12-14T03:25:53;8.99;84.17
77056;SHT30;67471;44.918;8.614;2023-12-14T03:28:56;8.93;84.26
77056;SHT30;67471;44.918;8.614;2023-12-14T03:32:01;9.00;84.09
77056;SHT30;67471;44.918;8.614;2023-12-14T03:35:05;8.93;84.30
77056;SHT30;67471;44.918;8.614;2023-12-14T03:38:09;8.94;84.29
77056;SHT30;67471;44.918;8.614;2023-12-14T03:41:12;9.03;84.05
77056;SHT30;67471;44.918;8.614;2023-12-14T03:44:16;9.01;83.97
77056;SHT30;67471;44.918;8.614;2023-12-14T03:47:20;9.08;83.65
77056;SHT30;67471;44.918;8.614;2023-12-14T03:50:25;9.11;83.44
77056;SHT30;67471;44.918;8.614;2023-12-14T03:53:28;9.07;83.70
77056;SHT30;67471;44.918;8.614;2023-12-14T03:56:32;8.97;83.70
77056;SHT30;67471;44.918;8.614;2023-12-14T03:59:39;8.96;84.09
77056;SHT30;67471;44.918;8.614;2023-12-14T04:02:42;8.90;84.23
77056;SHT30;67471;44.918;8.614;2023-12-14T04:05:46;9.05;83.56
77056;SHT30;67471;44.918;8.614;2023-12-14T04:08:50;8.96;83.85
77056;SHT30;67471;44.918;8.614;2023-12-14T04:11:54;8.93;83.68
77056;SHT30;67471;44.918;8.614;2023-12-14T04:14:58;9.03;83.61
77056;SHT30;67471;44.918;8.614;2023-12-14T04:18:02;8.91;83.88
77056;SHT30;67471;44.918;8.614;2023-12-14T04:21:05;8.99;83.60
77056;SHT30;67471;44.918;8.614;2023-12-14T04:24:09;8.91;84.14
77056;SHT30;67471;44.918;8.614;2023-12-14T04:27:15;8.80;84.38
77056;SHT30;67471;44.918;8.614;2023-12-14T04:30:19;8.87;83.88
77056;SHT30;67471;44.918;8.614;2023-12-14T04:33:22;8.96;83.93
77056;SHT30;67471;44.918;8.614;2023-12-14T04:36:26;8.87;83.98
77056;SHT30;67471;44.918;8.614;2023-12-14T04:39:30;8.91;84.12
77056;SHT30;67471;44.918;8.614;2023-12-14T04:42:34;8.87;84.02
77056;SHT30;67471;44.918;8.614;2023-12-14T04:45:37;8.87;83.83
77056;SHT30;67471;44.918;8.614;2023-12-14T04:48:41;8.84;83.87
77056;SHT30;67471;44.918;8.614;2023-12-14T04:51:45;8.90;83.51
77056;SHT30;67471;44.918;8.614;2023-12-14T04:54:49;8.85;83.59
77056;SHT30;67471;44.918;8.614;2023-12-14T04:57:52;8.87;83.56
77056;SHT30;67471;44.918;8.614;2023-12-14T05:00:56;8.76;83.89
77056;SHT30;67471;44.918;8.614;2023-12-14T05:04:00;8.77;83.89
77056;SHT30;67471;44.918;8.614;2023-12-14T05:07:03;8.69;84.06
77056;SHT30;67471;44.918;8.614;2023-12-14T05:10:07;8.73;83.85
77056;SHT30;67471;44.918;8.614;2023-12-14T05:13:11;8.73;84.10
77056;SHT30;67471;44.918;8.614;2023-12-14T05:16:16;8.73;84.03
77056;SHT30;67471;44.918;8.614;2023-12-14T05:19:20;8.70;84.10
77056;SHT30;67471;44.918;8.614;2023-12-14T05:22:24;8.70;84.11
77056;SHT30;67471;44.918;8.614;2023-12-14T05:25:28;8.76;84.08
77056;SHT30;67471;44.918;8.614;2023-12-14T05:28:31;8.72;84.21
77056;SHT30;67471;44.918;8.614;2023-12-14T05:31:35;8.73;84.01
77056;SHT30;67471;44.918;8.614;2023-12-14T05:34:39;8.70;84.13
77056;SHT30;67471;44.918;8.614;2023-12-14T05:37:43;8.69;83.99
77056;SHT30;67471;44.918;8.614;2023-12-14T05:40:46;8.67;84.03
77056;SHT30;67471;44.918;8.614;2023-12-14T05:43:50;8.73;83.68
77056;SHT30;67471;44.918;8.614;2023-12-14T05:46:54;8.64;83.88
77056;SHT30;67471;44.918;8.614;2023-12-14T05:49:58;8.64;84.11
77056;SHT30;67471;44.918;8.614;2023-12-14T05:53:02;8.57;84.14
77056;SHT30;67471;44.918;8.614;2023-12-14T05:56:06;8.62;83.86
77056;SHT30;67471;44.918;8.614;2023-12-14T05:59:10;8.24;85.63
77056;SHT30;67471;44.918;8.614;2023-12-14T06:02:14;8.29;85.62
77056;SHT30;67471;44.918;8.614;2023-12-14T06:05:18;8.42;84.88
77056;SHT30;67471;44.918;8.614;2023-12-14T06:08:21;8.53;84.48
77056;SHT30;67471;44.918;8.614;2023-12-14T06:11:25;8.62;84.13
77056;SHT30;67471;44.918;8.614;2023-12-14T06:14:29;8.66;83.94
77056;SHT30;67471;44.918;8.614;2023-12-14T06:17:33;8.64;83.78
77056;SHT30;67471;44.918;8.614;2023-12-14T06:20:37;8.70;83.51
77056;SHT30;67471;44.918;8.614;2023-12-14T06:23:41;8.35;83.70
77056;SHT30;67471;44.918;8.614;2023-12-14T06:26:45;8.21;84.74
77056;SHT30;67471;44.918;8.614;2023-12-14T06:29:48;8.09;84.97
77056;SHT30;67471;44.918;8.614;2023-12-14T06:32:52;8.38;83.84
77056;SHT30;67471;44.918;8.614;2023-12-14T06:35:56;8.29;84.30
77056;SHT30;67471;44.918;8.614;2023-12-14T06:39:01;8.24;84.78
77056;SHT30;67471;44.918;8.614;2023-12-14T06:42:05;8.31;83.88
77056;SHT30;67471;44.918;8.614;2023-12-14T06:45:09;8.38;83.77
77056;SHT30;67471;44.918;8.614;2023-12-14T06:48:13;8.38;83.75
77056;SHT30;67471;44.918;8.614;2023-12-14T06:51:17;8.41;83.69
77056;SHT30;67471;44.918;8.614;2023-12-14T06:54:22;8.52;83.59
77056;SHT30;67471;44.918;8.614;2023-12-14T06:57:25;8.50;84.00
77056;SHT30;67471;44.918;8.614;2023-12-14T07:00:30;8.53;84.12
77056;SHT30;67471;44.918;8.614;2023-12-14T07:03:34;8.60;83.95
77056;SHT30;67471;44.918;8.614;2023-12-14T07:06:38;8.67;83.88
77056;SHT30;67471;44.918;8.614;2023-12-14T07:09:41;8.76;83.71
77056;SHT30;67471;44.918;8.614;2023-12-14T07:12:46;8.64;83.88
77056;SHT30;67471;44.918;8.614;2023-12-14T07:15:51;8.80;83.63
77056;SHT30;67471;44.918;8.614;2023-12-14T07:18:55;8.87;83.58
77056;SHT30;67471;44.918;8.614;2023-12-14T07:21:58;8.94;83.34
77056;SHT30;67471;44.918;8.614;2023-12-14T07:25:03;9.00;82.75
77056;SHT30;67471;44.918;8.614;2023-12-14T07:28:09;8.94;82.96
77056;SHT30;67471;44.918;8.614;2023-12-14T07:31:12;9.01;82.60
77056;SHT30;67471;44.918;8.614;2023-12-14T07:34:16;9.04;82.60
77056;SHT30;67471;44.918;8.614;2023-12-14T07:37:20;9.03;82.30
77056;SHT30;67471;44.918;8.614;2023-12-14T07:40:24;9.03;82.44
77056;SHT30;67471;44.918;8.614;2023-12-14T07:43:27;9.10;82.25
77056;SHT30;67471;44.918;8.614;2023-12-14T07:46:31;9.12;82.39
77056;SHT30;67471;44.918;8.614;2023-12-14T07:49:35;9.17;82.17
77056;SHT30;67471;44.918;8.614;2023-12-14T07:52:39;9.25;81.86
77056;SHT30;67471;44.918;8.614;2023-12-14T07:55:43;9.31;81.72
77056;SHT30;67471;44.918;8.614;2023-12-14T07:58:47;9.30;81.80
77056;SHT30;67471;44.918;8.614;2023-12-14T08:01:51;9.35;81.70
77056;SHT30;67471;44.918;8.614;2023-12-14T08:04:55;9.41;81.53
77056;SHT30;67471;44.918;8.614;2023-12-14T08:07:58;9.48;81.25
77056;SHT30;67471;44.918;8.614;2023-12-14T08:11:04;9.34;81.78
77056;SHT30;67471;44.918;8.614;2023-12-14T08:14:07;9.42;81.56
77056;SHT30;67471;44.918;8.614;2023-12-14T08:17:11;9.42;81.31
77056;SHT30;67471;44.918;8.614;2023-12-14T08:20:15;9.48;81.34
77056;SHT30;67471;44.918;8.614;2023-12-14T08:23:19;9.55;81.38
77056;SHT30;67471;44.918;8.614;2023-12-14T08:26:22;9.63;81.22
77056;SHT30;67471;44.918;8.614;2023-12-14T08:29:26;9.58;81.27
77056;SHT30;67471;44.918;8.614;2023-12-14T08:32:30;9.56;81.09
77056;SHT30;67471;44.918;8.614;2023-12-14T08:35:34;9.56;81.46
77056;SHT30;67471;44.918;8.614;2023-12-14T08:38:38;9.51;81.97
77056;SHT30;67471;44.918;8.614;2023-12-14T08:41:41;9.72;81.78
77056;SHT30;67471;44.918;8.614;2023-12-14T08:44:45;10.02;80.58
77056;SHT30;67471;44.918;8.614;2023-12-14T08:47:49;10.10;79.37
77056;SHT30;67471;44.918;8.614;2023-12-14T08:50:53;10.18;79.44
77056;SHT30;67471;44.918;8.614;2023-12-14T08:53:58;10.37;78.57
77056;SHT30;67471;44.918;8.614;2023-12-14T08:57:02;10.55;77.80
77056;SHT30;67471;44.918;8.614;2023-12-14T09:00:06;11.20;75.70
77056;SHT30;67471;44.918;8.614;2023-12-14T09:03:10;11.51;74.03
77056;SHT30;67471;44.918;8.614;2023-12-14T09:06:16;11.59;73.54
77056;SHT30;67471;44.918;8.614;2023-12-14T09:09:20;11.49;73.82
77056;SHT30;67471;44.918;8.614;2023-12-14T09:12:23;11.50;73.82
77056;SHT30;67471;44.918;8.614;2023-12-14T09:15:27;11.40;73.96
77056;SHT30;67471;44.918;8.614;2023-12-14T09:18:31;11.57;73.60
77056;SHT30;67471;44.918;8.614;2023-12-14T09:21:35;11.50;73.41
77056;SHT30;67471;44.918;8.614;2023-12-14T09:24:39;11.54;73.27
77056;SHT30;67471;44.918;8.614;2023-12-14T09:27:43;11.33;73.58
77056;SHT30;67471;44.918;8.614;2023-12-14T09:30:46;11.40;73.28
77056;SHT30;67471;44.918;8.614;2023-12-14T09:33:50;11.57;72.57
77056;SHT30;67471;44.918;8.614;2023-12-14T09:36:53;11.80;72.01
77056;SHT30;67471;44.918;8.614;2023-12-14T09:39:57;11.41;73.16
77056;SHT30;67471;44.918;8.614;2023-12-14T09:43:01;12.70;69.72
77056;SHT30;67471;44.918;8.614;2023-12-14T09:46:05;13.71;66.36
77056;SHT30;67471;44.918;8.614;2023-12-14T09:49:10;14.38;62.91
77056;SHT30;67471;44.918;8.614;2023-12-14T09:52:15;14.98;62.24
77056;SHT30;67471;44.918;8.614;2023-12-14T09:55:19;15.20;61.18
77056;SHT30;67471;44.918;8.614;2023-12-14T09:58:23;15.42;59.84
77056;SHT30;67471;44.918;8.614;2023-12-14T10:01:27;15.40;59.49
77056;SHT30;67471;44.918;8.614;2023-12-14T10:04:32;15.38;59.50
77056;SHT30;67471;44.918;8.614;2023-12-14T10:07:42;15.50;58.88
77056;SHT30;67471;44.918;8.614;2023-12-14T10:10:51;15.39;59.14
77056;SHT30;67471;44.918;8.614;2023-12-14T10:13:56;15.40;58.86
77056;SHT30;67471;44.918;8.614;2023-12-14T10:17:17;15.26;58.81
77056;SHT30;67471;44.918;8.614;2023-12-14T10:20:21;15.25;58.91
77056;SHT30;67471;44.918;8.614;2023-12-14T10:23:27;15.40;58.29
77056;SHT30;67471;44.918;8.614;2023-12-14T10:26:31;15.66;57.74
77056;SHT30;67471;44.918;8.614;2023-12-14T10:29:37;15.60;57.67
77056;SHT30;67471;44.918;8.614;2023-12-14T10:32:42;15.50;57.84
77056;SHT30;67471;44.918;8.614;2023-12-14T10:35:47;15.49;57.66
77056;SHT30;67471;44.918;8.614;2023-12-14T10:38:57;15.42;58.38
77056;SHT30;67471;44.918;8.614;2023-12-14T10:42:05;15.47;57.99
77056;SHT30;67471;44.918;8.614;2023-12-14T10:45:12;15.33;58.40
77056;SHT30;67471;44.918;8.614;2023-12-14T10:48:20;15.36;58.24
77056;SHT30;67471;44.918;8.614;2023-12-14T10:51:25;15.43;58.17
77056;SHT30;67471;44.918;8.614;2023-12-14T10:54:32;15.28;58.59
77056;SHT30;67471;44.918;8.614;2023-12-14T10:57:38;15.30;58.29
77056;SHT30;67471;44.918;8.614;2023-12-14T11:00:42;15.15;58.64
77056;SHT30;67471;44.918;8.614;2023-12-14T11:03:47;14.95;59.68
77056;SHT30;67471;44.918;8.614;2023-12-14T11:06:53;14.88;59.42
77056;SHT30;67471;44.918;8.614;2023-12-14T11:09:56;15.09;59.41
77056;SHT30;67471;44.918;8.614;2023-12-14T11:13:02;15.11;59.38
77056;SHT30;67471;44.918;8.614;2023-12-14T11:16:06;15.20;59.74
77056;SHT30;67471;44.918;8.614;2023-12-14T11:22:28;15.32;59.21
77056;SHT30;67471;44.918;8.614;2023-12-14T11:25:33;15.26;59.37
77056;SHT30;67471;44.918;8.614;2023-12-14T11:28:40;15.22;58.75
77056;SHT30;67471;44.918;8.614;2023-12-14T11:31:47;14.95;59.72
77056;SHT30;67471;44.918;8.614;2023-12-14T11:34:51;14.99;59.29
77056;SHT30;67471;44.918;8.614;2023-12-14T11:37:56;15.03;58.64
77056;SHT30;67471;44.918;8.614;2023-12-14T11:41:03;15.05;59.34
77056;SHT30;67471;44.918;8.614;2023-12-14T11:44:06;15.11;58.71
77056;SHT30;67471;44.918;8.614;2023-12-14T11:47:10;14.89;59.59
77056;SHT30;67471;44.918;8.614;2023-12-14T11:50:14;15.12;59.41
77056;SHT30;67471;44.918;8.614;2023-12-14T11:53:20;15.23;59.30
77056;SHT30;67471;44.918;8.614;2023-12-14T11:56:24;15.09;59.21
77056;SHT30;67471;44.918;8.614;2023-12-14T11:59:28;15.08;59.27
77056;SHT30;67471;44.918;8.614;2023-12-14T12:02:32;15.20;59.08
77056;SHT30;67471;44.918;8.614;2023-12-14T12:05:39;15.26;59.81
77056;SHT30;67471;44.918;8.614;2023-12-14T12:08:43;15.26;59.09
77056;SHT30;67471;44.918;8.614;2023-12-14T12:11:46;15.20;59.56
77056;SHT30;67471;44.918;8.614;2023-12-14T12:14:52;14.84;60.32
77056;SHT30;67471;44.918;8.614;2023-12-14T12:17:58;15.06;59.89
77056;SHT30;67471;44.918;8.614;2023-12-14T12:21:02;14.96;60.18
77056;SHT30;67471;44.918;8.614;2023-12-14T12:24:09;13.95;62.41
77056;SHT30;67471;44.918;8.614;2023-12-14T12:27:13;14.44;61.43
77056;SHT30;67471;44.918;8.614;2023-12-14T12:30:17;14.68;60.05
77056;SHT30;67471;44.918;8.614;2023-12-14T12:33:20;14.85;60.43
77056;SHT30;67471;44.918;8.614;2023-12-14T12:36:24;14.81;60.43
77056;SHT30;67471;44.918;8.614;2023-12-14T12:39:28;14.87;59.71
77056;SHT30;67471;44.918;8.614;2023-12-14T12:42:32;14.65;60.62
77056;SHT30;67471;44.918;8.614;2023-12-14T12:45:36;14.78;60.74
77056;SHT30;67471;44.918;8.614;2023-12-14T12:48:41;14.47;61.71
77056;SHT30;67471;44.918;8.614;2023-12-14T12:51:44;14.56;61.43
77056;SHT30;67471;44.918;8.614;2023-12-14T12:54:49;14.63;61.16
77056;SHT30;67471;44.918;8.614;2023-12-14T12:57:53;14.64;61.34
77056;SHT30;67471;44.918;8.614;2023-12-14T13:00:57;14.70;61.49
77056;SHT30;67471;44.918;8.614;2023-12-14T13:04:01;14.77;61.42
77056;SHT30;67471;44.918;8.614;2023-12-14T13:07:07;14.71;61.33
77056;SHT30;67471;44.918;8.614;2023-12-14T13:10:11;14.65;61.57
77056;SHT30;67471;44.918;8.614;2023-12-14T13:13:15;14.70;61.50
77056;SHT30;67471;44.918;8.614;2023-12-14T13:16:19;14.63;61.78
77056;SHT30;67471;44.918;8.614;2023-12-14T13:19:23;14.63;61.71
77056;SHT30;67471;44.918;8.614;2023-12-14T13:22:26;14.37;62.38
77056;SHT30;67471;44.918;8.614;2023-12-14T13:25:30;13.98;62.80
77056;SHT30;67471;44.918;8.614;2023-12-14T13:28:34;14.24;62.85
77056;SHT30;67471;44.918;8.614;2023-12-14T13:31:38;14.12;63.02
77056;SHT30;67471;44.918;8.614;2023-12-14T13:34:42;13.44;65.06
77056;SHT30;67471;44.918;8.614;2023-12-14T13:37:46;13.86;64.24
77056;SHT30;67471;44.918;8.614;2023-12-14T13:40:50;14.06;63.48
77056;SHT30;67471;44.918;8.614;2023-12-14T13:43:54;13.95;63.71
77056;SHT30;67471;44.918;8.614;2023-12-14T13:46:57;14.10;63.44
77056;SHT30;67471;44.918;8.614;2023-12-14T13:50:01;14.10;63.38
77056;SHT30;67471;44.918;8.614;2023-12-14T13:53:07;13.99;63.61
77056;SHT30;67471;44.918;8.614;2023-12-14T13:56:11;14.16;63.33
77056;SHT30;67471;44.918;8.614;2023-12-14T13:59:15;14.31;63.08
77056;SHT30;67471;44.918;8.614;2023-12-14T14:02:19;14.29;63.60
77056;SHT30;67471;44.918;8.614;2023-12-14T14:05:22;14.24;63.43
77056;SHT30;67471;44.918;8.614;2023-12-14T14:08:27;14.12;63.57
77056;SHT30;67471;44.918;8.614;2023-12-14T14:11:31;13.98;64.25
77056;SHT30;67471;44.918;8.614;2023-12-14T14:14:35;13.85;64.39
77056;SHT30;67471;44.918;8.614;2023-12-14T14:17:38;13.18;66.08
77056;SHT30;67471;44.918;8.614;2023-12-14T14:20:42;13.55;65.04
77056;SHT30;67471;44.918;8.614;2023-12-14T14:23:46;13.71;64.98
77056;SHT30;67471;44.918;8.614;2023-12-14T14:26:50;13.68;65.01
77056;SHT30;67471;44.918;8.614;2023-12-14T14:29:54;13.75;64.58
77056;SHT30;67471;44.918;8.614;2023-12-14T14:32:59;13.87;64.52
77056;SHT30;67471;44.918;8.614;2023-12-14T14:36:03;13.72;64.70
77056;SHT30;67471;44.918;8.614;2023-12-14T14:39:08;13.72;64.70
77056;SHT30;67471;44.918;8.614;2023-12-14T14:42:12;13.65;64.90
77056;SHT30;67471;44.918;8.614;2023-12-14T14:45:16;12.90;66.94
77056;SHT30;67471;44.918;8.614;2023-12-14T14:48:19;13.30;66.16
77056;SHT30;67471;44.918;8.614;2023-12-14T14:51:23;13.41;66.06
77056;SHT30;67471;44.918;8.614;2023-12-14T14:54:28;13.30;66.82
77056;SHT30;67471;44.918;8.614;2023-12-14T14:57:32;13.35;66.79
77056;SHT30;67471;44.918;8.614;2023-12-14T15:00:37;13.38;66.37
77056;SHT30;67471;44.918;8.614;2023-12-14T15:03:42;13.27;66.89
77056;SHT30;67471;44.918;8.614;2023-12-14T15:06:45;13.15;67.38
77056;SHT30;67471;44.918;8.614;2023-12-14T15:09:49;13.06;67.49
77056;SHT30;67471;44.918;8.614;2023-12-14T15:12:53;13.07;67.24
77056;SHT30;67471;44.918;8.614;2023-12-14T15:15:57;12.99;67.77
77056;SHT30;67471;44.918;8.614;2023-12-14T15:19:01;12.96;67.86
77056;SHT30;67471;44.918;8.614;2023-12-14T15:22:05;12.80;68.15
77056;SHT30;67471;44.918;8.614;2023-12-14T15:25:09;12.75;68.29
77056;SHT30;67471;44.918;8.614;2023-12-14T15:28:12;12.69;68.76
77056;SHT30;67471;44.918;8.614;2023-12-14T15:31:16;12.64;69.12
77056;SHT30;67471;44.918;8.614;2023-12-14T15:34:20;12.63;69.24
77056;SHT30;67471;44.918;8.614;2023-12-14T15:37:24;12.53;69.37
77056;SHT30;67471;44.918;8.614;2023-12-14T15:40:28;12.50;69.65
77056;SHT30;67471;44.918;8.614;2023-12-14T15:43:33;12.28;70.49
77056;SHT30;67471;44.918;8.614;2023-12-14T15:46:36;12.01;71.29
77056;SHT30;67471;44.918;8.614;2023-12-14T15:49:43;12.02;71.49
77056;SHT30;67471;44.918;8.614;2023-12-14T15:52:48;12.05;71.56
77056;SHT30;67471;44.918;8.614;2023-12-14T15:55:52;12.15;71.12
77056;SHT30;67471;44.918;8.614;2023-12-14T15:58:56;12.11;72.28
77056;SHT30;67471;44.918;8.614;2023-12-14T16:02:00;12.02;72.24
77056;SHT30;67471;44.918;8.614;2023-12-14T16:05:04;11.99;72.13
77056;SHT30;67471;44.918;8.614;2023-12-14T16:08:08;11.99;72.60
77056;SHT30;67471;44.918;8.614;2023-12-14T16:11:12;12.01;72.84
77056;SHT30;67471;44.918;8.614;2023-12-14T16:14:16;12.02;72.59
77056;SHT30;67471;44.918;8.614;2023-12-14T16:17:20;11.92;72.53
77056;SHT30;67471;44.918;8.614;2023-12-14T16:20:24;11.91;72.75
77056;SHT30;67471;44.918;8.614;2023-12-14T16:23:29;11.70;73.30
77056;SHT30;67471;44.918;8.614;2023-12-14T16:26:35;11.18;74.96
77056;SHT30;67471;44.918;8.614;2023-12-14T16:29:41;11.13;75.44
77056;SHT30;67471;44.918;8.614;2023-12-14T16:32:45;11.34;74.58
77056;SHT30;67471;44.918;8.614;2023-12-14T16:35:49;11.40;74.85
77056;SHT30;67471;44.918;8.614;2023-12-14T16:38:53;11.43;74.77
77056;SHT30;67471;44.918;8.614;2023-12-14T16:41:56;11.36;74.71
77056;SHT30;67471;44.918;8.614;2023-12-14T16:45:00;11.22;74.67
77056;SHT30;67471;44.918;8.614;2023-12-14T16:48:04;11.23;74.96
77056;SHT30;67471;44.918;8.614;2023-12-14T16:51:08;11.22;74.98
77056;SHT30;67471;44.918;8.614;2023-12-14T16:54:12;11.20;75.12
77056;SHT30;67471;44.918;8.614;2023-12-14T16:57:16;10.75;76.17
77056;SHT30;67471;44.918;8.614;2023-12-14T17:00:19;10.88;75.90
77056;SHT30;67471;44.918;8.614;2023-12-14T17:03:23;10.95;76.02
77056;SHT30;67471;44.918;8.614;2023-12-14T17:06:27;10.44;77.10
77056;SHT30;67471;44.918;8.614;2023-12-14T17:09:31;10.73;76.67
77056;SHT30;67471;44.918;8.614;2023-12-14T17:12:34;10.73;76.59
77056;SHT30;67471;44.918;8.614;2023-12-14T17:15:38;10.76;76.60
77056;SHT30;67471;44.918;8.614;2023-12-14T17:18:43;10.71;76.24
77056;SHT30;67471;44.918;8.614;2023-12-14T17:21:49;10.81;76.21
77056;SHT30;67471;44.918;8.614;2023-12-14T17:24:52;10.78;76.49
77056;SHT30;67471;44.918;8.614;2023-12-14T17:27:56;10.75;76.47
77056;SHT30;67471;44.918;8.614;2023-12-14T17:31:00;10.71;77.00
77056;SHT30;67471;44.918;8.614;2023-12-14T17:34:05;10.68;76.25
77056;SHT30;67471;44.918;8.614;2023-12-14T17:37:09;10.67;76.42
77056;SHT30;67471;44.918;8.614;2023-12-14T17:40:12;10.61;76.78
77056;SHT30;67471;44.918;8.614;2023-12-14T17:43:17;10.52;76.12
77056;SHT30;67471;44.918;8.614;2023-12-14T17:46:21;10.40;76.19
77056;SHT30;67471;44.918;8.614;2023-12-14T17:49:25;10.33;76.25
77056;SHT30;67471;44.918;8.614;2023-12-14T17:52:29;10.27;76.47
77056;SHT30;67471;44.918;8.614;2023-12-14T17:55:33;10.14;76.88
77056;SHT30;67471;44.918;8.614;2023-12-14T17:58:37;10.13;77.48
77056;SHT30;67471;44.918;8.614;2023-12-14T18:01:45;10.02;78.37
77056;SHT30;67471;44.918;8.614;2023-12-14T18:04:52;10.07;78.57
77056;SHT30;67471;44.918;8.614;2023-12-14T18:07:55;10.11;78.28
77056;SHT30;67471;44.918;8.614;2023-12-14T18:10:59;10.04;77.60
77056;SHT30;67471;44.918;8.614;2023-12-14T18:14:03;10.02;77.35
77056;SHT30;67471;44.918;8.614;2023-12-14T18:17:07;10.10;77.67
77056;SHT30;67471;44.918;8.614;2023-12-14T18:20:11;9.90;78.14
77056;SHT30;67471;44.918;8.614;2023-12-14T18:23:14;9.92;78.28
77056;SHT30;67471;44.918;8.614;2023-12-14T18:26:18;9.80;78.75
77056;SHT30;67471;44.918;8.614;2023-12-14T18:29:22;9.83;78.32
77056;SHT30;67471;44.918;8.614;2023-12-14T18:32:28;9.71;77.90
77056;SHT30;67471;44.918;8.614;2023-12-14T18:35:32;9.72;77.81
77056;SHT30;67471;44.918;8.614;2023-12-14T18:38:36;9.73;77.90
77056;SHT30;67471;44.918;8.614;2023-12-14T18:41:41;9.66;77.98
77056;SHT30;67471;44.918;8.614;2023-12-14T18:44:44;9.55;77.66
77056;SHT30;67471;44.918;8.614;2023-12-14T18:47:48;9.56;77.61
77056;SHT30;67471;44.918;8.614;2023-12-14T18:50:52;9.36;77.77
77056;SHT30;67471;44.918;8.614;2023-12-14T18:53:56;9.36;77.75
77056;SHT30;67471;44.918;8.614;2023-12-14T18:57:01;9.25;78.30
77056;SHT30;67471;44.918;8.614;2023-12-14T19:00:06;9.32;78.74
77056;SHT30;67471;44.918;8.614;2023-12-14T19:03:10;8.97;79.58
77056;SHT30;67471;44.918;8.614;2023-12-14T19:06:14;8.81;78.31
77056;SHT30;67471;44.918;8.614;2023-12-14T19:09:20;8.93;78.94
77056;SHT30;67471;44.918;8.614;2023-12-14T19:12:24;8.96;78.84
77056;SHT30;67471;44.918;8.614;2023-12-14T19:15:28;8.93;79.20
77056;SHT30;67471;44.918;8.614;2023-12-14T19:18:33;8.97;78.86
77056;SHT30;67471;44.918;8.614;2023-12-14T19:21:37;9.00;79.38
77056;SHT30;67471;44.918;8.614;2023-12-14T19:24:41;8.72;80.34
77056;SHT30;67471;44.918;8.614;2023-12-14T19:27:44;8.57;81.49
77056;SHT30;67471;44.918;8.614;2023-12-14T19:30:55;8.35;82.20
77056;SHT30;67471;44.918;8.614;2023-12-14T19:33:59;8.52;81.19